Página principal
METAR-TAF:

METAR-TAF

Aeroportos :

Chengdu, China

Aeroporto Internacional de Chengdu Shuangliu

latitude: 30-40N, longitude: 104-01E, altura: 508 m

Observação actual do tempo

O boletim foi feito há 19 minutos, às 21:00 UTC
Vento calmo
Temperatura 20°C
Humidade 88%
Pressão 1011 hPa
Visibilidade: 6000 m

METAR: ZUUU 272100Z 00000MPS 6000 NSC 20/18 Q1011 NOSIG

Hora: 05:19 (21:19 UTC)

Previsão

O boletim foi feito há 7 horas e 10 minutos, às 14:09 UTC
Previsão válida de 27 às 18 UTC a 28 às 18 UTC
Vento 6 kt de su-sudoeste
Visibilidade: 5000 m
Nuvens dispersasa uma altura de 5000 ft
neblina

TAF: ZUUU 271409Z 2718/2818 20003MPS 5000 BR SCT050 TX32/2807Z TN20/2722Z

Observações e previsões do tempo de mais de 4000 aeroportos (mensagens METAR e TAF).

As estações disponíveis são os pontos amarelos e vermelhos sobre o mapa.

Mova o rato sobre o mapa para ver o nome da estação.

Depois clique no ponto para visualizar as observações e previsões meteorológicas.

Para alterar o mapa : clique nos botões verdes com uma cruz preta para aumentar o zoom; no botão verde com uma pitada de zoom; ou nas setas verdes para mapas adjacentes.


METAR-TAF: